createdAt,value
2018-06-12T00:01:54.874Z,0.00
2018-06-12T00:02:54.556Z,0.00
2018-06-12T00:03:54.557Z,0.00
2018-06-12T00:06:54.445Z,0.00
2018-06-12T00:07:54.494Z,0.00
2018-06-12T00:08:54.776Z,0.00
2018-06-12T00:11:54.366Z,0.00
2018-06-12T00:12:54.348Z,0.00
2018-06-12T00:13:54.681Z,0.00
2018-06-12T00:14:54.319Z,0.00
2018-06-12T00:15:54.600Z,0.00
2018-06-12T00:16:54.283Z,0.00
2018-06-12T00:17:54.269Z,0.00
2018-06-12T00:19:54.288Z,0.00
2018-06-12T00:20:54.219Z,0.00
2018-06-12T00:21:54.210Z,0.00
2018-06-12T00:23:55.987Z,0.00
2018-06-12T00:24:54.156Z,0.00
2018-06-12T00:25:54.192Z,0.00
2018-06-12T00:26:54.127Z,0.00
2018-06-12T00:27:54.109Z,0.00
2018-06-12T00:28:54.647Z,0.00
2018-06-12T00:29:54.087Z,0.00
2018-06-12T00:30:54.378Z,0.00
2018-06-12T00:31:54.096Z,0.00
2018-06-12T00:32:54.032Z,0.00
2018-06-12T00:33:54.016Z,0.00
2018-06-12T00:34:53.997Z,0.00
2018-06-12T00:35:54.084Z,0.00
2018-06-12T00:36:54.265Z,0.00
2018-06-12T00:37:54.312Z,0.00
2018-06-12T00:39:53.917Z,0.00
2018-06-12T00:41:53.888Z,0.00
2018-06-12T00:43:54.209Z,0.00
2018-06-12T00:44:53.847Z,0.00
2018-06-12T00:45:53.821Z,0.00
2018-06-12T00:46:53.799Z,0.00
2018-06-12T00:47:54.112Z,0.00
2018-06-12T00:49:54.130Z,0.00
2018-06-12T00:50:53.747Z,0.00
2018-06-12T00:51:53.744Z,0.00
2018-06-12T00:52:53.707Z,0.00
2018-06-12T00:53:53.702Z,0.00
2018-06-12T00:54:53.678Z,0.00
2018-06-12T00:56:54.006Z,0.00
2018-06-12T00:57:53.635Z,0.00
2018-06-12T00:59:53.617Z,0.00
2018-06-12T01:00:53.582Z,0.00
2018-06-12T01:02:54.215Z,0.00
2018-06-12T01:03:53.537Z,0.00
2018-06-12T01:09:53.782Z,0.00
2018-06-12T01:11:53.398Z,0.00
2018-06-12T01:12:53.388Z,0.00
2018-06-12T01:13:53.364Z,0.00
2018-06-12T01:14:53.349Z,0.00
2018-06-12T01:15:53.382Z,0.00
2018-06-12T01:16:53.621Z,0.00
2018-06-12T01:17:53.308Z,0.00
2018-06-12T01:18:53.299Z,0.00
2018-06-12T01:19:53.280Z,0.00
2018-06-12T01:20:53.698Z,0.00
2018-06-12T01:21:53.286Z,0.00
2018-06-12T01:22:53.607Z,0.00
2018-06-12T01:23:53.799Z,0.00
2018-06-12T01:24:53.177Z,0.00
2018-06-12T01:26:53.163Z,0.00
2018-06-12T01:27:53.195Z,0.00
2018-06-12T01:28:53.122Z,0.00
2018-06-12T01:29:53.098Z,0.00
2018-06-12T01:30:53.388Z,0.00
2018-06-12T01:31:53.071Z,0.00
2018-06-12T01:32:53.080Z,0.00
2018-06-12T01:33:53.081Z,0.00
2018-06-12T01:34:53.023Z,0.00
2018-06-12T01:35:53.008Z,0.00
2018-06-12T01:36:53.090Z,0.00
2018-06-12T01:37:53.286Z,0.00
2018-06-12T01:38:52.961Z,0.00
2018-06-12T01:39:53.088Z,0.00
2018-06-12T01:40:53.170Z,0.00
2018-06-12T01:41:52.907Z,0.00
2018-06-12T01:42:52.881Z,0.00
2018-06-12T01:43:52.876Z,0.00
2018-06-12T01:44:53.289Z,0.00
2018-06-12T01:45:52.894Z,0.00
2018-06-12T01:46:52.838Z,0.00
2018-06-12T01:47:52.822Z,0.00
2018-06-12T01:48:52.892Z,0.00
2018-06-12T01:49:52.782Z,0.00
2018-06-12T01:50:52.763Z,0.00
2018-06-12T01:52:52.728Z,0.00
2018-06-12T01:53:52.725Z,0.00
2018-06-12T01:54:52.703Z,0.00
2018-06-12T01:55:52.686Z,0.00
2018-06-12T01:56:52.667Z,0.00
2018-06-12T01:58:52.985Z,0.00
2018-06-12T01:59:52.722Z,0.00
2018-06-12T02:00:52.602Z,0.00
2018-06-12T02:01:52.651Z,0.00
2018-06-12T02:02:52.607Z,0.00
2018-06-12T02:03:52.556Z,0.00
2018-06-12T02:05:52.970Z,0.00
2018-06-12T02:06:52.506Z,0.00
2018-06-12T02:07:52.508Z,0.00
2018-06-12T02:08:52.576Z,4.00
2018-06-12T02:09:52.513Z,4.00
2018-06-12T02:11:52.941Z,0.00
2018-06-12T02:13:52.401Z,4.00
2018-06-12T02:14:52.389Z,4.00
2018-06-12T02:17:52.683Z,4.00
2018-06-12T02:18:52.314Z,4.00
2018-06-12T02:19:52.312Z,4.00
2018-06-12T02:20:52.332Z,4.00
2018-06-12T02:21:52.278Z,4.00
2018-06-12T02:22:52.321Z,8.00
2018-06-12T02:23:52.582Z,8.00
2018-06-12T02:24:52.209Z,8.00
2018-06-12T02:25:52.326Z,12.00
2018-06-12T02:26:52.186Z,12.00
2018-06-12T02:27:52.170Z,12.00
2018-06-12T02:28:53.568Z,12.00
2018-06-12T02:29:52.487Z,16.00
2018-06-12T02:30:52.125Z,16.00
2018-06-12T02:31:52.106Z,16.00
2018-06-12T02:32:52.100Z,20.00
2018-06-12T02:33:52.077Z,24.00
2018-06-12T02:34:52.058Z,28.00
2018-06-12T02:35:52.395Z,28.00
2018-06-12T02:36:52.347Z,32.00
2018-06-12T02:37:52.013Z,32.00
2018-06-12T02:38:51.996Z,36.00
2018-06-12T02:39:51.979Z,40.00
2018-06-12T02:40:51.964Z,44.00
2018-06-12T02:41:52.302Z,48.00
2018-06-12T02:42:52.040Z,52.00
2018-06-12T02:43:51.930Z,56.00
2018-06-12T02:44:51.997Z,60.00
2018-06-12T02:46:51.919Z,72.00
2018-06-12T02:47:51.902Z,76.00
2018-06-12T02:48:52.134Z,80.00
2018-06-12T02:49:51.817Z,88.00
2018-06-12T02:50:51.899Z,92.00
2018-06-12T02:51:51.796Z,108.00
2018-06-12T02:52:51.793Z,108.00
2018-06-12T02:54:52.203Z,124.00
2018-06-12T02:55:51.729Z,136.00
2018-06-12T02:56:51.734Z,144.00
2018-06-12T02:58:51.679Z,156.00
2018-06-12T02:59:51.672Z,164.00
2018-06-12T03:00:51.755Z,180.00
2018-06-12T03:01:51.955Z,184.00
2018-06-12T03:03:51.610Z,212.00
2018-06-12T03:04:51.590Z,216.00
2018-06-12T03:06:51.605Z,236.00
2018-06-12T03:07:51.646Z,248.00
2018-06-12T03:08:51.831Z,264.00
2018-06-12T03:09:51.526Z,280.00
2018-06-12T03:10:51.496Z,292.00
2018-06-12T03:11:51.502Z,304.00
2018-06-12T03:12:51.520Z,320.00
2018-06-12T03:13:51.456Z,328.00
2018-06-12T03:14:51.432Z,336.00
2018-06-12T03:15:51.725Z,356.00
2018-06-12T03:17:51.423Z,380.00
2018-06-12T03:18:51.445Z,392.00
2018-06-12T03:19:51.367Z,412.00
2018-06-12T03:20:51.339Z,428.00
2018-06-12T03:21:51.326Z,420.00
2018-06-12T03:23:51.601Z,512.00
2018-06-12T03:24:51.332Z,540.00
2018-06-12T03:25:51.271Z,544.00
2018-06-12T03:27:51.330Z,600.00
2018-06-12T03:28:51.209Z,612.00
2018-06-12T03:29:51.194Z,608.00
2018-06-12T03:30:51.537Z,632.00
2018-06-12T03:31:51.167Z,692.00
2018-06-12T03:32:51.149Z,768.00
2018-06-12T03:33:51.232Z,792.00
2018-06-12T03:34:51.132Z,784.00
2018-06-12T03:35:51.162Z,856.00
2018-06-12T03:36:51.456Z,940.00
2018-06-12T03:37:51.166Z,1000.00
2018-06-12T03:38:51.061Z,1088.00
2018-06-12T03:39:51.051Z,1104.00
2018-06-12T03:40:51.090Z,1136.00
2018-06-12T03:42:51.362Z,1140.00
2018-06-12T03:43:50.982Z,1128.00
2018-06-12T03:44:50.972Z,1116.00
2018-06-12T03:45:50.963Z,1128.00
2018-06-12T03:46:51.449Z,1132.00
2018-06-12T03:47:50.931Z,1156.00
2018-06-12T03:49:51.252Z,1132.00
2018-06-12T03:50:50.889Z,1152.00
2018-06-12T03:51:50.888Z,1196.00
2018-06-12T03:52:50.874Z,1176.00
2018-06-12T03:53:50.847Z,1172.00
2018-06-12T03:54:50.847Z,1216.00
2018-06-12T03:55:51.173Z,1256.00
2018-06-12T03:56:51.101Z,1264.00
2018-06-12T03:57:50.782Z,1288.00
2018-06-12T03:58:50.776Z,1344.00
2018-06-12T03:59:50.763Z,1376.00
2018-06-12T04:01:51.068Z,1460.00
2018-06-12T04:02:50.707Z,1496.00
2018-06-12T04:04:50.732Z,1508.00
2018-06-12T04:05:50.665Z,1528.00
2018-06-12T04:06:50.655Z,1520.00
2018-06-12T04:07:50.997Z,1512.00
2018-06-12T04:08:50.700Z,1588.00
2018-06-12T04:09:50.613Z,1708.00
2018-06-12T04:16:50.848Z,1808.00
2018-06-12T04:17:50.487Z,1896.00
2018-06-12T04:18:50.472Z,1960.00
2018-06-12T04:20:50.444Z,1948.00
2018-06-12T04:21:50.441Z,1976.00
2018-06-12T04:22:50.473Z,2072.00
2018-06-12T04:23:50.762Z,2068.00
2018-06-12T04:24:50.398Z,2060.00
2018-06-12T04:25:50.381Z,2048.00
2018-06-12T04:26:50.371Z,2000.00
2018-06-12T04:28:50.529Z,2108.00
2018-06-12T04:29:50.364Z,2196.00
2018-06-12T04:30:50.691Z,2108.00
2018-06-12T04:31:50.284Z,2080.00
2018-06-12T04:32:50.274Z,2188.00
2018-06-12T04:34:50.300Z,2528.00
2018-06-12T04:35:51.030Z,2428.00
2018-06-12T04:36:50.313Z,2224.00
2018-06-12T04:37:50.497Z,2152.00
2018-06-12T04:38:50.185Z,2344.00
2018-06-12T04:39:50.172Z,2440.00
2018-06-12T04:40:50.210Z,2324.00
2018-06-12T04:41:50.145Z,2180.00
2018-06-12T04:42:50.129Z,2088.00
2018-06-12T04:43:50.113Z,2112.00
2018-06-12T04:44:50.402Z,2140.00
2018-06-12T04:45:50.090Z,2088.00
2018-06-12T04:46:50.116Z,2032.00
2018-06-12T04:47:50.047Z,2120.00
2018-06-12T04:49:50.125Z,2104.00
2018-06-12T04:50:50.028Z,2028.00
2018-06-12T04:51:50.411Z,2160.00
2018-06-12T04:52:50.045Z,2300.00
2018-06-12T04:53:49.972Z,2236.00
2018-06-12T04:54:49.987Z,2240.00
2018-06-12T04:55:49.964Z,2324.00
2018-06-12T04:56:49.926Z,2500.00
2018-06-12T04:57:49.928Z,2604.00
2018-06-12T04:58:51.590Z,2612.00
2018-06-12T04:59:49.889Z,2736.00
2018-06-12T05:00:49.972Z,2844.00
2018-06-12T05:01:49.856Z,2988.00
2018-06-12T05:02:49.844Z,2980.00
2018-06-12T05:04:50.164Z,3232.00
2018-06-12T05:05:49.802Z,3352.00
2018-06-12T05:06:49.780Z,3512.00
2018-06-12T05:07:49.802Z,3696.00
2018-06-12T05:08:50.217Z,3984.00
2018-06-12T05:09:49.745Z,3936.00
2018-06-12T05:10:50.160Z,3704.00
2018-06-12T05:11:49.719Z,3552.00
2018-06-12T05:12:49.688Z,3332.00
2018-06-12T05:13:49.683Z,3472.00
2018-06-12T05:14:49.696Z,3548.00
2018-06-12T05:15:49.657Z,3704.00
2018-06-12T05:16:49.998Z,3864.00
2018-06-12T05:17:49.730Z,4008.00
2018-06-12T05:18:49.615Z,4068.00
2018-06-12T05:19:49.718Z,4304.00
2018-06-12T05:20:49.592Z,4388.00
2018-06-12T05:22:49.923Z,4072.00
2018-06-12T05:23:49.548Z,4012.00
2018-06-12T05:25:49.532Z,4064.00
2018-06-12T05:27:49.496Z,4472.00
2018-06-12T05:29:49.813Z,4416.00
2018-06-12T05:30:49.471Z,4324.00
2018-06-12T05:31:49.441Z,4120.00
2018-06-12T05:34:49.396Z,4004.00
2018-06-12T05:36:50.018Z,4136.00
2018-06-12T05:37:49.353Z,4324.00
2018-06-12T05:38:49.505Z,4488.00
2018-06-12T05:39:49.351Z,4716.00
2018-06-12T05:40:49.373Z,4732.00
2018-06-12T05:41:49.351Z,4736.00
2018-06-12T05:42:49.637Z,5056.00
2018-06-12T05:43:49.280Z,5252.00
2018-06-12T05:44:49.261Z,5180.00
2018-06-12T05:45:49.245Z,5068.00
2018-06-12T05:46:49.252Z,4860.00
2018-06-12T05:47:49.227Z,4820.00
2018-06-12T05:48:49.261Z,4880.00
2018-06-12T05:49:49.491Z,4488.00
2018-06-12T05:50:49.199Z,4940.00
2018-06-12T05:51:49.180Z,4872.00
2018-06-12T05:52:49.189Z,4956.00
2018-06-12T05:53:49.192Z,5244.00
2018-06-12T05:54:49.192Z,5332.00
2018-06-12T05:55:49.170Z,5596.00
2018-06-12T05:56:49.403Z,5820.00
2018-06-12T05:58:49.083Z,5580.00
2018-06-12T05:59:49.068Z,5956.00
2018-06-12T06:00:49.183Z,6064.00
2018-06-12T06:01:49.032Z,6000.00
2018-06-12T06:02:49.032Z,6120.00
2018-06-12T06:03:49.307Z,6428.00
2018-06-12T06:04:49.050Z,6696.00
2018-06-12T06:06:50.271Z,6684.00
2018-06-12T06:07:48.978Z,6468.00
2018-06-12T06:08:48.947Z,6268.00
2018-06-12T06:09:48.929Z,6308.00
2018-06-12T06:10:49.217Z,6616.00
2018-06-12T06:11:49.325Z,6636.00
2018-06-12T06:12:48.953Z,6184.00
2018-06-12T06:13:48.933Z,6068.00
2018-06-12T06:16:48.837Z,6256.00
2018-06-12T06:17:49.136Z,5876.00
2018-06-12T06:18:48.873Z,5768.00
2018-06-12T06:19:48.803Z,5744.00
2018-06-12T06:20:48.793Z,6036.00
2018-06-12T06:21:48.779Z,5644.00
2018-06-12T06:22:48.762Z,5416.00
2018-06-12T06:23:48.784Z,5396.00
2018-06-12T06:24:49.177Z,5512.00
2018-06-12T06:25:48.736Z,5448.00
2018-06-12T06:27:48.709Z,5640.00
2018-06-12T06:28:48.709Z,5748.00
2018-06-12T06:29:48.736Z,5992.00
2018-06-12T06:30:48.730Z,6300.00
2018-06-12T06:31:48.947Z,6540.00
2018-06-12T06:32:48.856Z,6508.00
2018-06-12T06:33:48.874Z,6480.00
2018-06-12T06:34:48.683Z,6692.00
2018-06-12T06:35:48.597Z,6936.00
2018-06-12T06:36:48.657Z,7020.00
2018-06-12T06:37:48.877Z,6800.00
2018-06-12T06:38:48.582Z,6892.00
2018-06-12T06:39:48.584Z,6796.00
2018-06-12T06:40:48.528Z,7212.00
2018-06-12T06:41:48.521Z,7124.00
2018-06-12T06:42:48.562Z,7016.00
2018-06-12T06:43:48.796Z,6896.00
2018-06-12T06:44:48.490Z,7084.00
2018-06-12T06:45:48.481Z,7616.00
2018-06-12T06:46:48.457Z,7864.00
2018-06-12T06:47:48.441Z,7684.00
2018-06-12T06:48:48.492Z,7664.00
2018-06-12T06:49:48.717Z,7752.00
2018-06-12T06:50:48.405Z,7724.00
2018-06-12T06:51:48.394Z,7324.00
2018-06-12T06:53:48.436Z,6412.00
2018-06-12T06:54:48.453Z,6548.00
2018-06-12T06:55:48.643Z,6452.00
2018-06-12T06:56:48.545Z,6928.00
2018-06-12T06:57:48.669Z,7176.00
2018-06-12T06:58:48.380Z,7372.00
2018-06-12T07:00:48.341Z,6304.00
2018-06-12T07:01:48.268Z,6620.00
2018-06-12T07:02:48.558Z,6592.00
2018-06-12T07:03:48.245Z,6988.00
2018-06-12T07:04:48.258Z,6644.00
2018-06-12T07:07:48.280Z,6676.00
2018-06-12T07:08:48.196Z,6952.00
2018-06-12T07:09:48.501Z,6820.00
2018-06-12T07:10:48.156Z,7008.00
2018-06-12T07:11:48.261Z,7308.00
2018-06-12T07:12:48.133Z,7072.00
2018-06-12T07:13:48.184Z,6612.00
2018-06-12T07:14:48.116Z,6768.00
2018-06-12T07:15:48.093Z,6984.00
2018-06-12T07:17:48.372Z,6188.00
2018-06-12T07:18:48.072Z,6044.00
2018-06-12T07:19:48.092Z,6412.00
2018-06-12T07:20:48.075Z,6436.00
2018-06-12T07:21:48.021Z,5864.00
2018-06-12T07:22:48.055Z,5548.00
2018-06-12T07:24:48.311Z,5628.00
2018-06-12T07:25:48.043Z,5512.00
2018-06-12T07:26:47.958Z,5132.00
2018-06-12T07:27:47.943Z,5092.00
2018-06-12T07:28:47.934Z,5332.00
2018-06-12T07:30:48.207Z,4760.00
2018-06-12T07:32:47.934Z,4972.00
2018-06-12T07:34:47.860Z,4760.00
2018-06-12T07:35:47.864Z,4932.00
2018-06-12T07:42:47.818Z,6744.00
2018-06-12T07:43:47.768Z,7776.00
2018-06-12T07:44:47.768Z,8892.00
2018-06-12T07:45:47.788Z,8584.00
2018-06-12T07:46:47.852Z,7940.00
2018-06-12T07:49:47.667Z,9988.00
2018-06-12T07:54:47.910Z,14160.00
2018-06-12T07:55:47.597Z,15320.00
2018-06-12T07:56:47.583Z,16256.00
2018-06-12T07:57:47.619Z,15616.00
2018-06-12T07:58:47.555Z,15936.00
2018-06-12T08:00:48.222Z,15032.00
2018-06-12T08:01:47.537Z,13912.00
2018-06-12T08:02:47.513Z,13332.00
2018-06-12T08:03:47.580Z,14172.00
2018-06-12T08:04:47.490Z,14152.00
2018-06-12T08:06:47.768Z,11840.00
2018-06-12T08:07:47.467Z,9684.00
2018-06-12T08:11:47.461Z,8816.00
2018-06-12T08:12:47.416Z,9292.00
2018-06-12T08:13:48.154Z,9492.00
2018-06-12T08:14:47.397Z,10412.00
2018-06-12T08:15:47.363Z,11028.00
2018-06-12T08:16:47.358Z,10864.00
2018-06-12T08:19:47.619Z,9488.00
2018-06-12T08:20:47.397Z,9456.00
2018-06-12T08:21:47.297Z,8552.00
2018-06-12T08:22:47.416Z,7560.00
2018-06-12T08:23:47.375Z,7368.00
2018-06-12T08:24:47.269Z,7712.00
2018-06-12T08:27:47.552Z,6692.00
2018-06-12T08:28:48.689Z,6732.00
2018-06-12T08:30:47.258Z,8012.00
2018-06-12T08:31:47.188Z,8564.00
2018-06-12T08:32:49.553Z,9596.00
2018-06-12T08:33:47.465Z,10704.00
2018-06-12T08:36:47.193Z,10224.00
2018-06-12T08:37:48.416Z,11312.00
2018-06-12T08:39:47.430Z,10208.00
2018-06-12T08:40:47.150Z,9684.00
2018-06-12T08:42:47.110Z,10440.00
2018-06-12T08:43:47.065Z,10968.00
2018-06-12T08:46:47.381Z,12504.00
2018-06-12T08:47:47.020Z,13336.00
2018-06-12T08:48:47.845Z,14000.00
2018-06-12T08:50:46.980Z,11420.00
2018-06-12T08:51:46.960Z,9672.00
2018-06-12T08:52:46.948Z,7836.00
2018-06-12T08:53:47.265Z,6708.00
2018-06-12T08:54:46.983Z,6644.00
2018-06-12T08:55:46.919Z,5584.00
2018-06-12T08:56:46.903Z,6876.00
2018-06-12T08:57:46.896Z,7356.00
2018-06-12T08:58:46.897Z,7700.00
2018-06-12T08:59:46.872Z,8516.00
2018-06-12T09:00:48.973Z,9624.00
2018-06-12T09:01:46.849Z,9720.00
2018-06-12T09:02:46.842Z,10008.00
2018-06-12T09:03:46.833Z,9840.00
2018-06-12T09:04:46.811Z,11360.00
2018-06-12T09:05:46.817Z,11220.00
2018-06-12T09:06:46.839Z,9872.00
2018-06-12T09:07:47.083Z,9580.00
2018-06-12T09:09:46.758Z,10372.00
2018-06-12T09:10:46.759Z,10156.00
2018-06-12T09:11:46.736Z,11596.00
2018-06-12T09:12:46.783Z,12432.00
2018-06-12T09:13:46.711Z,14048.00
2018-06-12T09:14:47.066Z,14852.00
2018-06-12T09:15:46.696Z,14180.00
2018-06-12T09:16:46.682Z,13536.00
2018-06-12T09:18:46.704Z,10432.00
2018-06-12T09:19:54.547Z,10460.00
2018-06-12T09:20:47.031Z,10984.00
2018-06-12T09:21:46.939Z,11292.00
2018-06-12T09:22:47.249Z,10084.00
2018-06-12T09:23:46.639Z,8532.00
2018-06-12T09:24:46.642Z,7240.00
2018-06-12T09:25:46.578Z,8592.00
2018-06-12T09:26:46.565Z,9616.00
2018-06-12T09:27:46.855Z,10808.00
2018-06-12T09:28:46.540Z,10844.00
2018-06-12T09:29:46.535Z,12496.00
2018-06-12T09:30:46.571Z,12328.00
2018-06-12T09:31:46.644Z,13792.00
2018-06-12T09:32:46.638Z,13224.00
2018-06-12T09:33:46.487Z,13232.00
2018-06-12T09:35:46.813Z,13520.00
2018-06-12T09:36:46.506Z,12708.00
2018-06-12T09:37:46.447Z,11980.00
2018-06-12T09:38:46.432Z,10552.00
2018-06-12T09:39:46.418Z,9804.00
2018-06-12T09:40:46.408Z,8904.00
2018-06-12T09:41:46.398Z,8428.00
2018-06-12T09:42:46.740Z,7920.00
2018-06-12T09:43:46.384Z,7664.00
2018-06-12T09:44:46.365Z,7820.00
2018-06-12T09:45:46.353Z,7672.00
2018-06-12T09:46:46.348Z,7436.00
2018-06-12T09:47:46.335Z,7472.00
2018-06-12T09:48:46.772Z,8384.00
2018-06-12T09:49:46.398Z,9788.00
2018-06-12T09:50:46.313Z,9960.00
2018-06-12T09:51:46.305Z,10156.00
2018-06-12T09:52:46.275Z,10192.00
2018-06-12T09:53:46.274Z,9920.00
2018-06-12T09:54:46.757Z,8716.00
2018-06-12T09:55:46.247Z,8464.00
2018-06-12T09:56:46.232Z,7376.00
2018-06-12T09:57:46.301Z,7052.00
2018-06-12T09:58:46.215Z,7424.00
2018-06-12T09:59:46.217Z,6412.00
2018-06-12T10:00:46.658Z,6156.00
2018-06-12T10:01:46.181Z,5620.00
2018-06-12T10:02:46.174Z,5268.00
2018-06-12T10:04:46.142Z,4588.00
2018-06-12T10:05:46.133Z,5312.00
2018-06-12T10:06:47.230Z,5988.00
2018-06-12T10:08:46.349Z,7300.00
2018-06-12T10:09:46.494Z,7136.00
2018-06-12T10:10:46.082Z,7668.00
2018-06-12T10:11:46.061Z,7848.00
2018-06-12T10:12:46.422Z,8384.00
2018-06-12T10:13:46.039Z,9412.00
2018-06-12T10:14:46.048Z,9340.00
2018-06-12T10:15:46.034Z,10944.00
2018-06-12T10:16:46.003Z,11372.00
2018-06-12T10:17:45.996Z,11724.00
2018-06-12T10:18:46.350Z,12856.00
2018-06-12T10:19:45.971Z,14960.00
2018-06-12T10:20:45.966Z,17728.00
2018-06-12T10:21:45.949Z,19776.00
2018-06-12T10:22:45.935Z,18464.00
2018-06-12T10:23:45.926Z,17792.00
2018-06-12T10:24:45.964Z,16288.00
2018-06-12T10:25:46.204Z,14608.00
2018-06-12T10:26:45.888Z,13564.00
2018-06-12T10:27:45.877Z,13876.00
2018-06-12T10:28:45.901Z,14172.00
2018-06-12T10:29:45.857Z,14104.00
2018-06-12T10:30:45.896Z,14288.00
2018-06-12T10:31:46.141Z,13568.00
2018-06-12T10:32:45.829Z,14944.00
2018-06-12T10:33:45.816Z,16704.00
2018-06-12T10:34:45.811Z,18208.00
2018-06-12T10:35:45.801Z,19072.00
2018-06-12T10:36:45.835Z,20320.00
2018-06-12T10:39:46.053Z,21120.00
2018-06-12T10:40:45.750Z,19168.00
2018-06-12T10:41:45.746Z,16288.00
2018-06-12T10:42:46.069Z,14304.00
2018-06-12T10:43:45.755Z,13620.00
2018-06-12T10:44:45.698Z,14932.00
2018-06-12T10:45:46.031Z,18400.00
2018-06-12T10:46:45.695Z,18496.00
2018-06-12T10:47:45.667Z,20608.00
2018-06-12T10:48:45.708Z,21824.00
2018-06-12T10:49:45.891Z,22656.00
2018-06-12T10:50:45.641Z,22880.00
2018-06-12T10:51:45.631Z,24128.00
2018-06-12T10:52:45.920Z,25184.00
2018-06-12T10:53:45.659Z,21888.00
2018-06-12T10:54:45.651Z,23008.00
2018-06-12T10:55:45.594Z,25760.00
2018-06-12T10:56:45.582Z,26304.00
2018-06-12T10:57:45.593Z,23936.00
2018-06-12T10:58:45.867Z,20608.00
2018-06-12T10:59:45.556Z,18400.00
2018-06-12T11:00:45.602Z,17312.00
2018-06-12T11:01:45.563Z,15776.00
2018-06-12T11:02:45.530Z,14748.00
2018-06-12T11:03:45.517Z,13788.00
2018-06-12T11:04:45.806Z,12600.00
2018-06-12T11:05:45.505Z,11588.00
2018-06-12T11:06:45.540Z,10724.00
2018-06-12T11:07:45.564Z,10284.00
2018-06-12T11:08:45.489Z,10100.00
2018-06-12T11:09:45.466Z,10224.00
2018-06-12T11:10:45.770Z,10244.00
2018-06-12T11:11:45.453Z,10060.00
2018-06-12T11:12:45.484Z,11248.00
2018-06-12T11:13:45.423Z,12604.00
2018-06-12T11:14:45.411Z,13136.00
2018-06-12T11:15:45.471Z,13784.00
2018-06-12T11:16:45.695Z,15584.00
2018-06-12T11:17:45.383Z,16960.00
2018-06-12T11:18:45.423Z,18368.00
2018-06-12T11:19:45.720Z,19040.00
2018-06-12T11:20:45.427Z,20320.00
2018-06-12T11:21:45.347Z,20704.00
2018-06-12T11:22:45.649Z,23072.00
2018-06-12T11:23:45.979Z,27808.00
2018-06-12T11:25:45.360Z,17408.00
2018-06-12T11:26:45.297Z,13956.00
2018-06-12T11:27:45.290Z,12840.00
2018-06-12T11:28:45.580Z,12708.00
2018-06-12T11:30:45.271Z,11188.00
2018-06-12T11:31:45.296Z,10676.00
2018-06-12T11:34:45.519Z,9452.00
2018-06-12T11:35:45.208Z,8584.00
2018-06-12T11:36:45.225Z,8564.00
2018-06-12T11:37:45.250Z,8844.00
2018-06-12T11:38:45.183Z,8796.00
2018-06-12T11:39:45.169Z,10648.00
2018-06-12T11:40:45.461Z,11148.00
2018-06-12T11:41:45.153Z,11316.00
2018-06-12T11:42:45.140Z,10932.00
2018-06-12T11:43:45.178Z,10280.00
2018-06-12T11:44:45.117Z,9520.00
2018-06-12T11:45:45.114Z,8672.00
2018-06-12T11:47:45.403Z,9160.00
2018-06-12T11:48:45.083Z,9628.00
2018-06-12T11:49:45.120Z,10344.00
2018-06-12T11:50:45.259Z,11372.00
2018-06-12T11:51:45.055Z,11468.00
2018-06-12T11:52:45.041Z,11608.00
2018-06-12T11:54:45.323Z,11236.00
2018-06-12T11:55:45.067Z,11776.00
2018-06-12T11:56:45.209Z,10956.00
2018-06-12T11:57:44.992Z,11856.00
2018-06-12T11:58:45.007Z,12208.00
2018-06-12T11:59:44.966Z,12268.00
2018-06-12T12:00:45.469Z,12220.00
2018-06-12T12:01:45.015Z,12596.00
2018-06-12T12:02:44.936Z,13064.00
2018-06-12T12:03:44.930Z,14396.00
2018-06-12T12:04:44.913Z,14872.00
2018-06-12T12:06:45.197Z,15744.00
2018-06-12T12:08:44.924Z,18432.00
2018-06-12T12:09:44.866Z,21344.00
2018-06-12T12:10:44.852Z,21728.00
2018-06-12T12:11:44.851Z,22016.00
2018-06-12T12:12:44.845Z,23616.00
2018-06-12T12:13:45.140Z,26144.00
2018-06-12T12:14:45.243Z,30336.00
2018-06-12T12:15:44.863Z,36448.00
2018-06-12T12:17:44.787Z,39392.00
2018-06-12T12:18:44.768Z,45312.00
2018-06-12T12:19:44.770Z,39200.00
2018-06-12T12:21:45.105Z,18784.00
2018-06-12T12:22:44.783Z,17536.00
2018-06-12T12:24:44.867Z,15488.00
2018-06-12T12:25:44.709Z,15776.00
2018-06-12T12:26:44.696Z,13616.00
2018-06-12T12:27:44.742Z,11700.00
2018-06-12T12:28:45.105Z,10028.00
2018-06-12T12:29:44.680Z,9756.00
2018-06-12T12:30:44.679Z,9228.00
2018-06-12T12:31:44.647Z,9124.00
2018-06-12T12:32:44.643Z,9340.00
2018-06-12T12:33:44.692Z,9340.00
2018-06-12T12:35:44.949Z,9744.00
2018-06-12T12:36:44.661Z,9588.00
2018-06-12T12:39:44.641Z,11628.00
2018-06-12T12:40:44.705Z,12472.00
2018-06-12T12:41:44.562Z,13496.00
2018-06-12T12:42:44.872Z,13416.00
2018-06-12T12:43:46.038Z,12900.00
2018-06-12T12:44:44.552Z,12388.00
2018-06-12T12:45:44.568Z,11216.00
2018-06-12T12:46:44.557Z,11216.00
2018-06-12T12:47:44.530Z,11444.00
2018-06-12T12:48:44.784Z,10564.00
2018-06-12T12:49:44.484Z,11716.00
2018-06-12T12:50:44.572Z,12040.00
2018-06-12T12:51:44.508Z,12248.00
2018-06-12T12:52:44.444Z,13428.00
2018-06-12T12:54:44.903Z,13136.00
2018-06-12T12:55:44.419Z,13572.00
2018-06-12T12:56:44.405Z,13288.00
2018-06-12T12:57:44.542Z,14540.00
2018-06-12T12:58:44.391Z,14500.00
2018-06-12T13:00:44.670Z,14844.00
2018-06-12T13:01:44.367Z,14452.00
2018-06-12T13:02:44.407Z,14688.00
2018-06-12T13:03:44.387Z,12876.00
2018-06-12T13:04:44.334Z,11676.00
2018-06-12T13:06:44.604Z,9700.00
2018-06-12T13:07:44.292Z,9552.00
2018-06-12T13:09:44.329Z,10748.00
2018-06-12T13:10:44.361Z,11312.00
2018-06-12T13:12:44.655Z,11816.00
2018-06-12T13:13:44.382Z,12776.00
2018-06-12T13:14:44.219Z,12484.00
2018-06-12T13:15:44.263Z,12392.00
2018-06-12T13:16:44.208Z,13772.00
2018-06-12T13:17:44.191Z,14372.00
2018-06-12T13:18:44.495Z,14668.00
2018-06-12T13:19:44.188Z,15188.00
2018-06-12T13:20:44.282Z,15216.00
2018-06-12T13:21:44.317Z,12884.00
2018-06-12T13:22:44.294Z,14600.00
2018-06-12T13:23:44.141Z,15236.00
2018-06-12T13:24:44.419Z,14632.00
2018-06-12T13:25:44.109Z,14924.00
2018-06-12T13:27:44.207Z,16096.00
2018-06-12T13:28:44.081Z,15456.00
2018-06-12T13:29:44.202Z,15000.00
2018-06-12T13:30:44.362Z,15232.00
2018-06-12T13:31:44.120Z,13888.00
2018-06-12T13:32:44.368Z,18144.00
2018-06-12T13:33:44.231Z,16704.00
2018-06-12T13:34:44.027Z,17824.00
2018-06-12T13:35:44.158Z,17760.00
2018-06-12T13:36:44.303Z,17728.00
2018-06-12T13:37:44.832Z,17312.00
2018-06-12T13:38:44.023Z,15368.00
2018-06-12T13:39:44.307Z,14324.00
2018-06-12T13:40:44.404Z,11972.00
2018-06-12T13:42:43.955Z,8840.00
2018-06-12T13:43:44.227Z,10372.00
2018-06-12T13:44:43.939Z,10600.00
2018-06-12T13:45:43.981Z,12388.00
2018-06-12T13:46:44.103Z,14220.00
2018-06-12T13:47:43.896Z,13864.00
2018-06-12T13:48:43.904Z,14296.00
2018-06-12T13:49:43.860Z,15680.00
2018-06-12T13:50:44.154Z,15840.00
2018-06-12T13:51:43.892Z,16160.00
2018-06-12T13:52:43.837Z,15872.00
2018-06-12T13:53:43.840Z,15744.00
2018-06-12T13:54:43.842Z,17696.00
2018-06-12T13:55:43.804Z,19168.00
2018-06-12T13:56:44.096Z,21344.00
2018-06-12T13:57:43.852Z,19680.00
2018-06-12T13:58:43.842Z,19616.00
2018-06-12T13:59:43.767Z,21056.00
2018-06-12T14:00:43.751Z,21024.00
2018-06-12T14:01:43.754Z,21792.00
2018-06-12T14:02:44.046Z,21728.00
2018-06-12T14:03:43.953Z,21152.00
2018-06-12T14:04:43.710Z,20608.00
2018-06-12T14:05:43.730Z,20832.00
2018-06-12T14:07:43.690Z,24544.00
2018-06-12T14:08:44.036Z,19488.00
2018-06-12T14:09:43.725Z,16992.00
2018-06-12T14:10:43.657Z,15584.00
2018-06-12T14:11:43.662Z,14440.00
2018-06-12T14:12:43.633Z,13996.00
2018-06-12T14:13:43.622Z,12036.00
2018-06-12T14:14:43.916Z,12468.00
2018-06-12T14:15:43.721Z,10960.00
2018-06-12T14:16:43.684Z,11740.00
2018-06-12T14:17:43.588Z,12688.00
2018-06-12T14:18:43.584Z,11784.00
2018-06-12T14:19:43.565Z,12356.00
2018-06-12T14:20:43.581Z,12288.00
2018-06-12T14:21:43.901Z,10436.00